Time;durP1;ratioP1;P1;durP2;ratioP2;P2;SDS_P1;SDS_P2;PMS_P1;PMS_P2;Temp;Humidity;BMP_temperature;BMP_pressure;BME280_temperature;BME280_humidity;BME280_pressure;Samples;Min_cycle;Max_cycle;Signal;HPM_P1;HPM_P2
2022/01/20 00:01:43;;;;;;;21.90;14.95;;;20.70;48.00;;;;;;5037718;28;20082;-71
2022/01/20 00:04:17;;;;;;;22.42;15.23;;;20.70;48.10;;;;;;5037685;28;20028;-71
2022/01/20 00:09:21;;;;;;;23.63;15.10;;;20.70;48.00;;;;;;5055438;28;20473;-71
2022/01/20 00:23:15;;;;;;;21.65;13.93;;;20.70;48.20;;;;;;5054492;28;20507;-71
2022/01/20 00:25:58;;;;;;;21.95;14.05;;;20.70;48.20;;;;;;5054175;28;20040;-71
2022/01/20 00:28:39;;;;;;;20.45;13.98;;;20.60;48.10;;;;;;5054056;28;20045;-71
2022/01/20 00:31:34;;;;;;;19.88;13.10;;;20.70;48.20;;;;;;5053522;28;20029;-71
2022/01/20 00:39:23;;;;;;;19.63;12.85;;;20.70;48.00;;;;;;5052679;28;20032;-71
2022/01/20 00:41:50;;;;;;;21.27;13.30;;;20.70;48.20;;;;;;5051627;28;20028;-71
2022/01/20 00:44:16;;;;;;;20.65;13.32;;;20.70;48.10;;;;;;5053194;28;20111;-70
2022/01/20 00:46:46;;;;;;;19.02;12.73;;;20.70;48.10;;;;;;5052350;28;20063;-71
2022/01/20 00:49:13;;;;;;;19.30;13.65;;;20.70;48.20;;;;;;5052315;28;20508;-70
2022/01/20 00:51:39;;;;;;;19.27;12.77;;;20.60;48.20;;;;;;5050827;28;20033;-70
2022/01/20 00:54:04;;;;;;;19.60;13.00;;;20.60;48.20;;;;;;5051565;28;20021;-70
2022/01/20 00:56:30;;;;;;;18.13;12.45;;;20.60;48.20;;;;;;5051262;28;20075;-71
2022/01/20 00:58:56;;;;;;;18.00;12.23;;;20.60;48.20;;;;;;5051364;28;20032;-71
2022/01/20 01:01:24;;;;;;;20.30;12.40;;;20.60;48.20;;;;;;5050921;28;20032;-70
2022/01/20 01:03:50;;;;;;;19.70;12.38;;;20.60;48.20;;;;;;5051232;28;20424;-70
2022/01/20 01:06:34;;;;;;;18.42;11.65;;;20.60;48.30;;;;;;5051202;28;20032;-71
2022/01/20 01:08:59;;;;;;;18.88;12.07;;;20.60;48.20;;;;;;5052579;28;20029;-71
2022/01/20 01:11:26;;;;;;;18.83;12.40;;;20.60;48.30;;;;;;5050766;28;20378;-71
2022/01/20 01:13:53;;;;;;;20.52;12.07;;;20.60;48.30;;;;;;5034515;28;20043;-70
2022/01/20 01:16:23;;;;;;;18.77;11.60;;;20.60;48.30;;;;;;5052887;28;20071;-70
2022/01/20 01:21:44;;;;;;;18.02;10.88;;;20.60;48.30;;;;;;5050741;28;20136;-71
2022/01/20 01:24:11;;;;;;;18.95;11.95;;;20.60;48.10;;;;;;5050888;28;20040;-70
2022/01/20 01:26:37;;;;;;;18.00;11.73;;;20.60;48.30;;;;;;5051243;28;20433;-70
2022/01/20 01:29:23;;;;;;;17.17;11.05;;;20.60;48.40;;;;;;5051069;28;20033;-70
2022/01/20 01:31:49;;;;;;;17.70;10.73;;;20.60;48.20;;;;;;5006782;23;20039;-67
2022/01/20 01:34:15;;;;;;;17.50;11.25;;;20.60;48.20;;;;;;4954201;28;20057;-67
2022/01/20 01:39:24;;;;;;;19.65;10.98;;;20.60;48.30;;;;;;4987859;28;20085;-67
2022/01/20 01:41:54;;;;;;;16.83;10.82;;;20.60;48.20;;;;;;4968315;28;20086;-67
2022/01/20 01:44:27;;;;;;;17.15;10.50;;;20.60;48.40;;;;;;4968323;28;20062;-67
2022/01/20 01:46:58;;;;;;;18.67;11.15;;;20.60;48.30;;;;;;4952501;29;20042;-67
2022/01/20 01:49:24;;;;;;;15.90;10.15;;;20.60;48.30;;;;;;4968493;28;20403;-67
2022/01/20 01:51:51;;;;;;;18.48;10.90;;;20.60;48.20;;;;;;4952443;29;20105;-67
2022/01/20 01:54:18;;;;;;;16.17;10.82;;;20.60;48.30;;;;;;4968615;28;20036;-67
2022/01/20 01:56:48;;;;;;;16.38;10.07;;;20.60;48.40;;;;;;4968353;28;20046;-67
2022/01/20 01:59:20;;;;;;;15.27;9.93;;;20.60;48.30;;;;;;4968047;28;20399;-67
2022/01/20 02:01:52;;;;;;;17.88;10.57;;;20.60;48.30;;;;;;4952357;29;20041;-67
2022/01/20 02:04:22;;;;;;;16.25;10.30;;;20.60;48.30;;;;;;4936606;29;20042;-67
2022/01/20 02:07:28;;;;;;;15.88;10.13;;;20.60;48.30;;;;;;4952222;28;20038;-68
2022/01/20 02:18:36;;;;;;;16.70;9.50;;;20.60;48.30;;;;;;4968293;28;20111;-67
2022/01/20 02:21:05;;;;;;;15.00;9.65;;;20.60;48.30;;;;;;4951835;29;20060;-67
2022/01/20 02:23:32;;;;;;;15.75;9.73;;;20.60;48.30;;;;;;4952078;29;20038;-68
2022/01/20 02:25:59;;;;;;;16.35;9.57;;;20.50;48.30;;;;;;4968373;28;20447;-68
2022/01/20 02:28:25;;;;;;;16.35;10.07;;;20.50;48.30;;;;;;4953267;28;20053;-67
2022/01/20 02:30:51;;;;;;;16.92;9.88;;;20.60;48.30;;;;;;4968007;28;20039;-68
2022/01/20 02:33:20;;;;;;;17.27;9.93;;;20.50;48.90;;;;;;4920748;29;20043;-67
2022/01/20 02:36:00;;;;;;;15.48;9.65;;;20.50;48.30;;;;;;4936251;29;20027;-67
2022/01/20 02:46:33;;;;;;;14.32;8.88;;;20.50;48.40;;;;;;4971723;28;20511;-67
2022/01/20 02:48:59;;;;;;;14.03;8.87;;;20.50;48.40;;;;;;4955850;28;20039;-67
2022/01/20 02:51:25;;;;;;;14.82;8.63;;;20.50;48.30;;;;;;4971315;28;20046;-67
2022/01/20 02:53:55;;;;;;;14.93;8.68;;;20.50;48.20;;;;;;4971393;28;20525;-67
2022/01/20 02:56:20;;;;;;;15.10;8.27;;;20.50;48.30;;;;;;4955376;28;20031;-67
2022/01/20 02:58:52;;;;;;;14.20;8.52;;;20.50;48.00;;;;;;4971545;28;20033;-67
2022/01/20 03:01:20;;;;;;;15.25;8.68;;;20.50;48.20;;;;;;4955046;29;20035;-67
2022/01/20 03:03:49;;;;;;;15.02;8.82;;;20.50;48.20;;;;;;4971323;28;20038;-67
2022/01/20 03:06:18;;;;;;;16.67;8.95;;;20.50;48.30;;;;;;4971337;28;20046;-67
2022/01/20 03:08:44;;;;;;;15.20;8.50;;;20.50;48.20;;;;;;4923267;29;20039;-67
2022/01/20 03:11:10;;;;;;;14.52;8.45;;;20.50;48.30;;;;;;4954693;28;20038;-67
2022/01/20 03:13:37;;;;;;;14.85;8.90;;;20.50;48.30;;;;;;4954976;29;20404;-67
2022/01/20 03:16:05;;;;;;;15.60;8.73;;;20.50;48.40;;;;;;4955185;28;20027;-67
2022/01/20 03:18:32;;;;;;;14.40;8.32;;;20.50;48.30;;;;;;4954891;29;20027;-67
2022/01/20 03:20:58;;;;;;;14.52;8.60;;;20.60;48.40;;;;;;4954781;29;20032;-67
2022/01/20 03:23:24;;;;;;;14.50;8.40;;;20.50;48.30;;;;;;4954852;29;20041;-67
2022/01/20 03:25:53;;;;;;;15.07;8.20;;;20.50;48.30;;;;;;4970684;28;20114;-67
2022/01/20 03:28:19;;;;;;;15.32;8.38;;;20.50;48.30;;;;;;4954795;29;20063;-67
2022/01/20 03:30:48;;;;;;;14.93;8.52;;;20.50;48.30;;;;;;4938884;29;20030;-67
2022/01/20 03:33:14;;;;;;;14.15;8.43;;;20.50;48.40;;;;;;4954545;28;20031;-67
2022/01/20 03:35:41;;;;;;;13.63;8.07;;;20.50;48.30;;;;;;4954850;29;20019;-67
2022/01/20 03:38:25;;;;;;;14.80;8.20;;;20.50;48.30;;;;;;4954872;29;20396;-67
2022/01/20 03:40:53;;;;;;;13.18;7.68;;;20.60;48.40;;;;;;4970496;28;20518;-67
2022/01/20 03:43:19;;;;;;;14.18;8.00;;;20.50;48.20;;;;;;4938742;29;20027;-67
2022/01/20 03:45:50;;;;;;;14.93;8.60;;;20.50;48.30;;;;;;4954679;29;20027;-67
2022/01/20 03:48:16;;;;;;;12.27;7.55;;;20.50;48.30;;;;;;4955549;28;20027;-67
2022/01/20 03:53:35;;;;;;;13.90;7.90;;;20.50;48.30;;;;;;4970394;28;20047;-67
2022/01/20 03:56:03;;;;;;;13.48;7.60;;;20.50;48.30;;;;;;4938672;28;20171;-67
2022/01/20 03:58:38;;;;;;;15.15;7.85;;;20.50;48.30;;;;;;4970327;28;20027;-67
2022/01/20 04:01:07;;;;;;;13.17;7.30;;;20.50;48.30;;;;;;4953900;29;20032;-67
2022/01/20 04:03:55;;;;;;;13.60;7.32;;;20.50;48.40;;;;;;4955229;28;20403;-67
2022/01/20 04:06:34;;;;;;;13.43;7.25;;;20.50;48.30;;;;;;4940019;29;20579;-67
2022/01/20 04:09:00;;;;;;;13.15;8.18;;;20.50;48.30;;;;;;4953932;29;20043;-67
2022/01/20 04:11:28;;;;;;;13.18;7.55;;;20.50;48.40;;;;;;4937616;29;20096;-67
2022/01/20 04:13:55;;;;;;;12.77;7.18;;;20.50;48.20;;;;;;4953954;29;20032;-67
2022/01/20 04:16:52;;;;;;;12.88;7.13;;;20.50;48.30;;;;;;4953966;29;20027;-67
2022/01/20 04:19:20;;;;;;;16.05;8.07;;;20.50;48.30;;;;;;4953686;29;20039;-67
2022/01/20 04:21:46;;;;;;;12.77;6.82;;;20.50;48.20;;;;;;4969790;28;20039;-67
2022/01/20 04:24:12;;;;;;;12.95;6.85;;;20.40;48.20;;;;;;4969877;28;20404;-66
2022/01/20 04:26:41;;;;;;;12.40;7.05;;;20.50;48.10;;;;;;4953832;29;20039;-67
2022/01/20 04:29:13;;;;;;;12.40;7.05;;;20.40;48.10;;;;;;4953710;29;20035;-67
2022/01/20 04:31:41;;;;;;;12.15;6.65;;;20.40;48.10;;;;;;4969477;28;20369;-67
2022/01/20 04:34:08;;;;;;;13.40;7.25;;;20.50;48.00;;;;;;4937507;29;20516;-67
2022/01/20 04:36:39;;;;;;;12.88;7.00;;;20.40;48.00;;;;;;4969721;28;20127;-67
2022/01/20 04:39:08;;;;;;;12.85;7.28;;;20.40;48.10;;;;;;4953728;28;20040;-67
2022/01/20 04:41:34;;;;;;;11.57;6.45;;;20.50;48.20;;;;;;4954441;28;20476;-67
2022/01/20 04:44:09;;;;;;;12.33;7.27;;;20.50;48.20;;;;;;4969472;28;20027;-67
2022/01/20 04:46:45;;;;;;;13.90;6.82;;;20.50;48.30;;;;;;4969494;28;20275;-67
2022/01/20 04:57:26;;;;;;;11.60;6.65;;;20.50;48.40;;;;;;4969533;28;20041;-67
2022/01/20 04:59:54;;;;;;;11.52;6.82;;;20.50;48.10;;;;;;4969152;28;20110;-67
2022/01/20 05:02:23;;;;;;;12.93;7.00;;;20.50;48.20;;;;;;4952769;28;20039;-67
2022/01/20 05:04:55;;;;;;;10.77;6.32;;;20.50;48.20;;;;;;4969155;28;20048;-67
2022/01/20 05:07:38;;;;;;;11.13;6.70;;;20.50;48.30;;;;;;4952961;28;20038;-67
2022/01/20 05:10:10;;;;;;;12.07;6.65;;;20.50;48.20;;;;;;4968747;28;20399;-67
2022/01/20 05:13:24;;;;;;;12.52;6.57;;;20.50;48.20;;;;;;4953138;29;20102;-67
2022/01/20 05:15:23;;;;;;;13.25;6.72;;;20.50;48.20;;;;;;4955659;28;20059;-67
2022/01/20 05:17:51;;;;;;;12.15;6.20;;;20.40;48.10;;;;;;4969015;28;20039;-67
2022/01/20 05:20:17;;;;;;;11.45;6.57;;;20.40;48.20;;;;;;4952712;29;20203;-67
2022/01/20 05:22:43;;;;;;;11.30;5.97;;;20.40;48.30;;;;;;4952912;29;20058;-67
2022/01/20 05:25:12;;;;;;;11.20;6.22;;;20.40;48.10;;;;;;4952769;29;20023;-67
2022/01/20 05:27:37;;;;;;;10.95;6.35;;;20.50;48.10;;;;;;4968916;28;20399;-67
2022/01/20 05:30:04;;;;;;;9.48;5.70;;;20.40;48.10;;;;;;4952395;29;20551;-67
2022/01/20 05:32:30;;;;;;;12.05;5.97;;;20.50;48.20;;;;;;4952068;28;20119;-67
2022/01/20 05:34:56;;;;;;;12.65;6.60;;;20.50;48.20;;;;;;4952677;29;20106;-67
2022/01/20 05:37:22;;;;;;;10.65;5.93;;;20.40;48.20;;;;;;4968927;28;20031;-67
2022/01/20 05:39:49;;;;;;;11.73;6.05;;;20.40;48.10;;;;;;4952545;29;20035;-67
2022/01/20 05:42:21;;;;;;;12.40;6.45;;;20.40;48.10;;;;;;4953005;28;20039;-67
2022/01/20 05:44:59;;;;;;;11.57;5.90;;;20.40;48.10;;;;;;4938172;29;20054;-67
2022/01/20 05:47:30;;;;;;;10.85;6.13;;;20.50;48.10;;;;;;4936734;29;20043;-67
2022/01/20 05:50:15;;;;;;;10.70;6.00;;;20.40;48.10;;;;;;4952372;29;20054;-67
2022/01/20 05:52:43;;;;;;;10.38;5.50;;;20.40;48.10;;;;;;4936655;29;20031;-67
2022/01/20 05:55:13;;;;;;;9.80;5.90;;;20.40;48.00;;;;;;4952410;29;20030;-67
2022/01/20 05:57:40;;;;;;;9.95;5.60;;;20.40;48.00;;;;;;4968442;28;20019;-67
2022/01/20 06:00:11;;;;;;;10.27;5.95;;;20.40;48.00;;;;;;4951961;29;20536;-67
2022/01/20 06:05:32;;;;;;;10.05;5.70;;;20.50;48.00;;;;;;4968484;28;20035;-67
2022/01/20 06:07:58;;;;;;;9.45;5.57;;;20.50;47.90;;;;;;4952309;29;20063;-67
2022/01/20 06:10:24;;;;;;;10.10;5.43;;;20.50;48.10;;;;;;4951865;29;20115;-67
2022/01/20 06:12:51;;;;;;;10.63;6.15;;;20.50;48.10;;;;;;4968558;28;20031;-67
2022/01/20 06:15:17;;;;;;;9.38;5.72;;;20.50;48.00;;;;;;4957240;28;20045;-67
2022/01/20 06:17:42;;;;;;;9.27;5.38;;;20.50;47.80;;;;;;4940183;29;20038;-67
2022/01/20 06:20:11;;;;;;;11.60;5.80;;;20.40;47.90;;;;;;4955771;29;20027;-67
2022/01/20 06:22:38;;;;;;;11.20;5.47;;;20.50;47.80;;;;;;4955925;29;20031;-67
2022/01/20 06:25:05;;;;;;;12.10;6.40;;;20.50;47.70;;;;;;4956015;28;20036;-67
2022/01/20 06:27:32;;;;;;;10.13;5.43;;;20.50;48.10;;;;;;4957522;28;20035;-67
2022/01/20 06:29:58;;;;;;;10.88;5.47;;;20.50;48.10;;;;;;4955632;29;20027;-67
2022/01/20 06:32:24;;;;;;;10.18;5.25;;;20.50;48.10;;;;;;4956872;28;20110;-67
2022/01/20 06:34:50;;;;;;;11.85;5.65;;;20.50;48.10;;;;;;4955934;29;20027;-66
2022/01/20 06:37:16;;;;;;;12.55;6.00;;;20.50;48.10;;;;;;4971774;28;20035;-67
2022/01/20 06:39:41;;;;;;;9.23;4.97;;;20.50;48.10;;;;;;4955515;29;20692;-67
2022/01/20 06:42:07;;;;;;;10.60;5.40;;;20.50;47.90;;;;;;4955583;29;20038;-67
2022/01/20 06:44:33;;;;;;;10.98;5.05;;;20.50;47.90;;;;;;4956141;29;20463;-67
2022/01/20 06:46:59;;;;;;;10.82;5.68;;;20.50;48.10;;;;;;4971786;28;20039;-67
2022/01/20 06:49:31;;;;;;;8.43;5.10;;;20.50;47.90;;;;;;4955364;28;20094;-67
2022/01/20 06:51:58;;;;;;;10.27;5.30;;;20.50;48.00;;;;;;4955289;29;20102;-67
2022/01/20 06:54:24;;;;;;;8.15;4.65;;;20.50;48.00;;;;;;4955502;29;20437;-67
2022/01/20 06:56:51;;;;;;;9.90;5.00;;;20.50;47.90;;;;;;4971511;28;20106;-67
2022/01/20 06:59:17;;;;;;;10.65;4.80;;;20.40;47.90;;;;;;4971325;28;20115;-67
2022/01/20 07:01:45;;;;;;;9.63;5.38;;;20.50;47.90;;;;;;4955071;29;20031;-67
2022/01/20 07:04:18;;;;;;;9.75;5.07;;;20.50;48.00;;;;;;4955472;28;20492;-67
2022/01/20 07:06:44;;;;;;;8.93;5.07;;;20.40;47.80;;;;;;4955354;28;20118;-67
2022/01/20 07:09:39;;;;;;;9.85;4.53;;;20.40;48.00;;;;;;4954642;29;20058;-68
2022/01/20 07:12:31;;;;;;;10.77;5.00;;;20.50;47.90;;;;;;4957605;28;20047;-67
2022/01/20 07:14:57;;;;;;;8.40;4.60;;;20.50;48.00;;;;;;4971483;28;20086;-67
2022/01/20 07:17:24;;;;;;;8.55;4.47;;;20.50;47.90;;;;;;4971097;28;20027;-67
2022/01/20 07:19:51;;;;;;;8.80;4.60;;;20.40;47.70;;;;;;4954763;29;20031;-67
2022/01/20 07:22:19;;;;;;;9.80;4.85;;;20.50;48.00;;;;;;4954802;29;20027;-67
2022/01/20 07:24:47;;;;;;;9.40;4.85;;;20.50;47.70;;;;;;4954758;28;20086;-67
2022/01/20 07:27:22;;;;;;;7.97;4.35;;;20.50;47.80;;;;;;4970930;28;20088;-67
2022/01/20 07:29:48;;;;;;;8.60;4.75;;;20.50;47.60;;;;;;4954263;29;20027;-67
2022/01/20 07:32:14;;;;;;;9.52;4.72;;;20.50;47.50;;;;;;4954553;29;20506;-67
2022/01/20 07:34:40;;;;;;;9.45;4.53;;;20.50;47.60;;;;;;4954656;28;20023;-66
2022/01/20 07:37:06;;;;;;;8.40;4.53;;;20.50;47.80;;;;;;4954607;29;20030;-67
2022/01/20 07:39:33;;;;;;;8.93;4.57;;;20.50;47.50;;;;;;4922837;29;20050;-67
2022/01/20 07:41:59;;;;;;;8.43;4.63;;;20.50;47.70;;;;;;4954300;28;20050;-66
2022/01/20 07:44:56;;;;;;;10.13;4.88;;;20.50;47.80;;;;;;4954623;28;20551;-67
2022/01/20 07:47:25;;;;;;;6.93;4.15;;;20.50;47.80;;;;;;4954587;29;20050;-66
2022/01/20 07:49:51;;;;;;;8.52;4.63;;;20.50;48.40;;;;;;4954199;29;20106;-67
2022/01/20 07:52:17;;;;;;;9.13;4.57;;;20.50;47.90;;;;;;4970372;28;20071;-67
2022/01/20 07:54:43;;;;;;;8.77;4.40;;;20.50;47.90;;;;;;4970874;28;20443;-66
2022/01/20 07:57:10;;;;;;;7.65;4.50;;;20.50;47.90;;;;;;4970364;28;20027;-66
2022/01/20 07:59:35;;;;;;;9.50;4.95;;;20.50;47.90;;;;;;4937991;29;20024;-66
2022/01/20 08:02:04;;;;;;;8.45;4.38;;;20.50;47.40;;;;;;4954118;28;20066;-66
2022/01/20 08:04:30;;;;;;;10.05;4.70;;;20.50;47.50;;;;;;4954249;29;20031;-66
2022/01/20 08:06:58;;;;;;;8.75;4.30;;;20.50;47.30;;;;;;4954070;29;20476;-67
2022/01/20 08:09:24;;;;;;;8.15;4.18;;;20.50;47.30;;;;;;4953859;29;20042;-67
2022/01/20 08:12:03;;;;;;;7.65;4.28;;;20.50;47.40;;;;;;4953943;29;20106;-67
2022/01/20 08:14:29;;;;;;;9.95;4.40;;;20.50;47.70;;;;;;4955158;28;20035;-67
2022/01/20 08:16:55;;;;;;;11.45;4.60;;;20.50;47.60;;;;;;4955076;28;20488;-66
2022/01/20 08:19:21;;;;;;;8.18;4.38;;;20.50;47.70;;;;;;4953607;29;20480;-66
2022/01/20 08:21:47;;;;;;;8.50;4.22;;;20.50;47.90;;;;;;4953654;28;20043;-66
2022/01/20 08:24:13;;;;;;;8.95;4.38;;;20.50;47.80;;;;;;4969891;28;20070;-67
2022/01/20 08:26:39;;;;;;;7.85;3.85;;;20.50;47.40;;;;;;4953871;29;20030;-67
2022/01/20 08:29:05;;;;;;;8.73;4.60;;;20.50;47.70;;;;;;4969743;28;20043;-67
2022/01/20 08:31:32;;;;;;;7.97;4.07;;;20.50;47.70;;;;;;4969213;28;20035;-67
2022/01/20 08:34:04;;;;;;;7.88;4.13;;;20.50;47.50;;;;;;4969656;28;20035;-67
2022/01/20 08:36:50;;;;;;;8.30;4.25;;;20.50;47.70;;;;;;4952802;28;20035;-67
2022/01/20 08:42:01;;;;;;;7.28;4.20;;;20.50;47.50;;;;;;4953124;29;20039;-67
2022/01/20 08:44:27;;;;;;;8.77;4.40;;;20.50;47.50;;;;;;4953334;28;20094;-66
2022/01/20 08:46:57;;;;;;;7.72;4.32;;;20.50;47.50;;;;;;4954923;28;20480;-66
2022/01/20 08:49:23;;;;;;;;;;;20.50;47.60;;;;;;4953666;29;20034;-66
2022/01/20 08:51:54;;;;;;;7.72;4.13;;;20.50;47.50;;;;;;4953307;29;20010;-66
2022/01/20 08:54:26;;;;;;;8.15;3.92;;;20.50;47.30;;;;;;4953131;29;20031;-67
2022/01/20 08:57:02;;;;;;;7.75;4.35;;;20.50;47.70;;;;;;4969500;28;20035;-67
2022/01/20 08:59:29;;;;;;;7.85;4.05;;;20.50;47.40;;;;;;4952805;29;20031;-67
2022/01/20 09:01:55;;;;;;;8.98;4.15;;;20.50;47.30;;;;;;4953068;29;20090;-67
2022/01/20 09:04:21;;;;;;;7.05;3.80;;;20.60;47.50;;;;;;4969278;28;20484;-67
2022/01/20 09:07:13;;;;;;;6.82;3.60;;;20.60;47.40;;;;;;4954744;28;20043;-67
2022/01/20 09:09:42;;;;;;;8.70;4.25;;;20.50;47.40;;;;;;4952613;28;20031;-67
2022/01/20 09:17:26;;;;;;;7.90;3.70;;;20.50;47.20;;;;;;4969209;28;20033;-67
2022/01/20 09:19:52;;;;;;;6.93;3.63;;;20.50;47.60;;;;;;4952493;29;20028;-68
2022/01/20 09:22:19;;;;;;;7.20;4.05;;;20.50;47.20;;;;;;4968814;28;20032;-67
2022/01/20 09:24:45;;;;;;;7.90;3.67;;;20.50;47.50;;;;;;4952691;29;20039;-67
2022/01/20 09:27:13;;;;;;;8.88;3.95;;;20.50;47.30;;;;;;4968708;28;20023;-67
2022/01/20 09:29:41;;;;;;;6.57;3.50;;;20.50;47.30;;;;;;4952177;29;20035;-67
2022/01/20 09:32:10;;;;;;;6.78;4.00;;;20.50;47.50;;;;;;4968589;28;20031;-68
2022/01/20 09:34:37;;;;;;;8.30;3.90;;;20.50;47.50;;;;;;4952721;29;20027;-67
2022/01/20 09:37:03;;;;;;;6.97;3.67;;;20.50;47.50;;;;;;4968796;28;20169;-67
2022/01/20 09:39:32;;;;;;;6.25;3.45;;;20.50;47.30;;;;;;4936642;29;20024;-67
2022/01/20 09:42:04;;;;;;;6.82;3.50;;;20.50;47.50;;;;;;4952840;29;20035;-67
2022/01/20 09:44:32;;;;;;;;;;;20.50;47.30;;;;;;4952933;29;20027;-68
2022/01/20 09:46:59;;;;;;;6.90;3.67;;;20.50;47.10;;;;;;4968470;28;19969;-67
2022/01/20 09:49:53;;;;;;;7.50;3.60;;;20.50;47.20;;;;;;4953351;29;20223;-67
2022/01/20 09:52:33;;;;;;;8.63;3.55;;;20.50;47.40;;;;;;4952366;28;20522;-68
2022/01/20 09:55:26;;;;;;;8.15;3.92;;;20.50;47.40;;;;;;4952767;28;20496;-67
2022/01/20 09:57:52;;;;;;;6.80;3.45;;;20.50;47.60;;;;;;4936723;29;20031;-68
2022/01/20 10:00:18;;;;;;;8.00;3.90;;;20.50;47.40;;;;;;4936175;29;20023;-67
2022/01/20 10:03:06;;;;;;;7.20;3.70;;;20.50;47.50;;;;;;4952323;29;20035;-68
2022/01/20 10:05:38;;;;;;;7.78;3.70;;;20.50;47.60;;;;;;4952183;28;20038;-68
2022/01/20 10:08:10;;;;;;;8.43;3.60;;;20.50;47.50;;;;;;4952319;29;20035;-67
2022/01/20 10:10:47;;;;;;;7.93;4.07;;;20.50;47.20;;;;;;4951936;29;20400;-68
2022/01/20 10:13:25;;;;;;;8.07;3.65;;;20.60;47.20;;;;;;4952279;29;20035;-68
2022/01/20 10:16:23;;;;;;;7.07;3.60;;;20.50;47.20;;;;;;4962546;28;20046;-68
2022/01/20 10:19:00;;;;;;;7.47;4.00;;;20.50;46.90;;;;;;4968409;28;20039;-68
2022/01/20 10:21:43;;;;;;;6.93;3.90;;;20.60;47.10;;;;;;4952224;29;20519;-67
2022/01/20 10:24:29;;;;;;;7.20;3.55;;;20.50;47.10;;;;;;4953522;28;20043;-67
2022/01/20 10:27:12;;;;;;;6.90;3.55;;;20.60;47.10;;;;;;4952094;28;20039;-67
2022/01/20 10:29:40;;;;;;;8.20;3.90;;;20.50;47.60;;;;;;4951597;29;20031;-67
2022/01/20 10:32:11;;;;;;;8.15;3.83;;;20.50;47.10;;;;;;4951846;29;20035;-68
2022/01/20 10:34:37;;;;;;;8.02;3.78;;;20.50;47.00;;;;;;4952145;28;20059;-67
2022/01/20 10:37:25;;;;;;;8.00;3.90;;;20.50;47.40;;;;;;4968295;28;20031;-68
2022/01/20 10:40:10;;;;;;;7.80;3.67;;;20.50;47.40;;;;;;4952956;28;20035;-68
2022/01/20 10:42:45;;;;;;;7.78;3.80;;;20.50;47.40;;;;;;4951954;29;20042;-68
2022/01/20 10:45:23;;;;;;;7.40;3.75;;;20.50;47.40;;;;;;4951952;28;20503;-68
2022/01/20 10:47:52;;;;;;;10.25;3.65;;;20.50;47.40;;;;;;4920584;29;20035;-68
2022/01/20 10:50:27;;;;;;;7.47;3.58;;;20.50;47.40;;;;;;4967846;28;20389;-68
2022/01/20 10:53:02;;;;;;;6.72;3.65;;;20.50;47.30;;;;;;4951829;29;20055;-68
2022/01/20 10:55:32;;;;;;;9.20;3.60;;;20.50;47.20;;;;;;4967819;28;20027;-68
2022/01/20 10:58:22;;;;;;;7.15;3.42;;;20.50;47.00;;;;;;4952044;28;20047;-67
2022/01/20 11:00:53;;;;;;;6.93;3.75;;;20.50;47.10;;;;;;4954647;29;20046;-66
2022/01/20 11:03:21;;;;;;;7.00;3.17;;;20.50;47.00;;;;;;4971513;28;20031;-67
2022/01/20 11:05:53;;;;;;;8.00;3.60;;;20.50;47.00;;;;;;4955230;29;20035;-67
2022/01/20 11:08:29;;;;;;;8.50;3.88;;;20.50;46.80;;;;;;4941316;29;20096;-67
2022/01/20 11:10:58;;;;;;;6.00;3.13;;;20.50;46.90;;;;;;4938891;29;20031;-68
2022/01/20 11:13:56;;;;;;;8.13;3.72;;;20.60;46.90;;;;;;4973532;28;20432;-67
2022/01/20 11:16:23;;;;;;;8.23;3.50;;;20.50;47.20;;;;;;4971293;28;20479;-67
2022/01/20 11:18:49;;;;;;;7.13;3.53;;;20.50;47.00;;;;;;4939331;29;20484;-67
2022/01/20 11:21:25;;;;;;;7.35;3.55;;;20.50;47.20;;;;;;4954555;29;20071;-67
2022/01/20 11:23:52;;;;;;;8.48;3.78;;;20.50;46.90;;;;;;4954582;29;20042;-66
2022/01/20 11:26:56;;;;;;;6.03;3.33;;;20.50;47.00;;;;;;4963395;28;20042;-67
2022/01/20 11:29:50;;;;;;;7.45;3.00;;;20.50;47.00;;;;;;4970964;28;20054;-67
2022/01/20 11:32:35;;;;;;;7.30;3.67;;;20.50;46.90;;;;;;4955866;28;20039;-67
2022/01/20 11:35:13;;;;;;;9.10;4.05;;;20.60;47.00;;;;;;4954712;29;20027;-67
2022/01/20 11:37:42;;;;;;;6.60;3.45;;;20.50;46.80;;;;;;4955975;28;20677;-68
2022/01/20 11:40:18;;;;;;;7.07;3.28;;;20.50;46.80;;;;;;4955662;28;20506;-67
2022/01/20 11:43:05;;;;;;;7.78;3.33;;;20.60;46.90;;;;;;4954694;29;20035;-68
2022/01/20 11:45:34;;;;;;;7.38;3.40;;;20.50;46.90;;;;;;4955724;28;20035;-67
2022/01/20 11:48:17;;;;;;;8.52;3.47;;;20.50;47.10;;;;;;4970598;28;20046;-68
2022/01/20 11:50:45;;;;;;;5.25;2.97;;;20.50;47.10;;;;;;4955287;28;20031;-67
2022/01/20 11:53:17;;;;;;;7.63;3.30;;;20.50;46.90;;;;;;4955734;28;20392;-67
2022/01/20 11:55:51;;;;;;;6.75;3.33;;;20.60;47.20;;;;;;4954396;29;20031;-67
2022/01/20 11:58:20;;;;;;;8.88;3.60;;;20.50;47.00;;;;;;4956018;28;20588;-68
2022/01/20 12:01:09;;;;;;;8.63;3.47;;;20.50;46.70;;;;;;4955071;28;20034;-68
2022/01/20 12:03:37;;;;;;;7.55;3.60;;;20.50;47.10;;;;;;4954394;29;20077;-68
2022/01/20 12:06:10;;;;;;;8.82;3.70;;;20.60;47.10;;;;;;4954426;29;20035;-67
2022/01/20 12:09:00;;;;;;;9.27;3.35;;;20.60;47.10;;;;;;4954119;28;20443;-68
2022/01/20 12:11:45;;;;;;;7.78;3.35;;;20.50;47.00;;;;;;4955283;28;20040;-67
2022/01/20 12:14:12;;;;;;;6.93;3.30;;;20.50;47.10;;;;;;4955824;29;20030;-67
2022/01/20 12:16:40;;;;;;;7.07;3.70;;;20.50;47.10;;;;;;4954153;29;20027;-68
2022/01/20 12:19:08;;;;;;;8.85;3.25;;;20.50;47.20;;;;;;4955126;28;20023;-68
2022/01/20 12:21:36;;;;;;;6.70;3.08;;;20.50;47.30;;;;;;4954717;28;20559;-68
2022/01/20 12:24:02;;;;;;;6.50;3.22;;;20.50;46.90;;;;;;4955182;28;20086;-67
2022/01/20 12:26:33;;;;;;;8.02;3.53;;;20.60;46.60;;;;;;4969925;28;20311;-67
2022/01/20 12:29:02;;;;;;;6.97;3.30;;;20.60;46.40;;;;;;4954967;28;20046;-67
2022/01/20 12:31:28;;;;;;;6.82;3.30;;;20.60;46.80;;;;;;4954301;28;20031;-68
2022/01/20 12:33:55;;;;;;;7.13;3.20;;;20.60;46.50;;;;;;4953946;28;20066;-68
2022/01/20 12:36:20;;;;;;;6.32;3.30;;;20.60;46.30;;;;;;4954692;28;20031;-67
2022/01/20 12:38:48;;;;;;;7.90;3.47;;;20.60;46.60;;;;;;4969672;28;20041;-68
2022/01/20 12:41:15;;;;;;;7.85;3.38;;;20.60;46.10;;;;;;4954364;28;20027;-67
2022/01/20 12:43:46;;;;;;;7.93;3.45;;;20.60;46.60;;;;;;4953387;28;20103;-68
2022/01/20 12:46:14;;;;;;;6.07;2.97;;;20.60;46.70;;;;;;4953058;29;20082;-68
2022/01/20 12:48:50;;;;;;;5.85;3.10;;;20.60;46.60;;;;;;4953550;29;20041;-67
2022/01/20 12:51:16;;;;;;;8.05;3.25;;;20.50;46.60;;;;;;4969054;28;20034;-67
2022/01/20 12:53:54;;;;;;;6.95;3.30;;;20.50;46.60;;;;;;4969420;28;20027;-67
2022/01/20 12:56:29;;;;;;;6.60;3.30;;;20.50;46.80;;;;;;4953206;29;20064;-67
2022/01/20 12:58:54;;;;;;;7.38;3.25;;;20.50;46.90;;;;;;4954498;28;20038;-67
2022/01/20 13:01:21;;;;;;;7.90;3.33;;;20.50;46.30;;;;;;4952958;29;20027;-68
2022/01/20 13:03:47;;;;;;;8.43;3.40;;;20.50;46.80;;;;;;4954394;28;20110;-68
2022/01/20 13:06:26;;;;;;;5.57;2.65;;;20.50;46.80;;;;;;4953096;29;20054;-68
2022/01/20 13:09:04;;;;;;;7.93;3.60;;;20.50;46.60;;;;;;4954253;28;20083;-68
2022/01/20 13:11:33;;;;;;;7.97;3.55;;;20.60;46.90;;;;;;4953782;28;20507;-68
2022/01/20 13:14:00;;;;;;;5.85;3.05;;;20.60;46.80;;;;;;4954277;28;20391;-68
2022/01/20 13:16:26;;;;;;;7.15;3.30;;;20.60;46.90;;;;;;4952977;28;20031;-67
2022/01/20 13:18:56;;;;;;;8.60;3.55;;;20.60;46.60;;;;;;4954098;28;20027;-68
2022/01/20 13:21:40;;;;;;;7.05;2.97;;;20.60;46.90;;;;;;4953626;28;20043;-68
2022/01/20 13:24:09;;;;;;;6.75;2.92;;;20.60;46.70;;;;;;4953906;28;20023;-67
2022/01/20 13:26:51;;;;;;;6.07;3.28;;;20.60;47.00;;;;;;4952877;29;20035;-67
2022/01/20 13:29:18;;;;;;;5.70;2.97;;;20.50;46.80;;;;;;4953924;28;20086;-67
2022/01/20 13:31:44;;;;;;;6.63;3.22;;;20.50;47.00;;;;;;4994620;23;20083;-71
2022/01/20 13:34:15;;;;;;;5.75;2.92;;;20.50;46.60;;;;;;5029144;28;20061;-72
2022/01/20 13:36:50;;;;;;;6.35;2.85;;;20.50;46.70;;;;;;5011696;28;20021;-72
2022/01/20 13:39:31;;;;;;;5.38;2.95;;;20.50;47.10;;;;;;5028279;28;20056;-72
2022/01/20 13:42:12;;;;;;;7.53;3.03;;;20.50;47.00;;;;;;5028512;28;20048;-72
2022/01/20 13:47:22;;;;;;;6.40;2.97;;;20.50;47.10;;;;;;5029652;28;20482;-71
2022/01/20 13:49:53;;;;;;;6.85;3.03;;;20.50;47.00;;;;;;5029178;28;20067;-71
2022/01/20 13:52:21;;;;;;;6.28;3.00;;;20.50;47.30;;;;;;5027869;28;20116;-71
2022/01/20 13:54:51;;;;;;;7.32;3.17;;;20.40;47.00;;;;;;5011499;28;20033;-71
2022/01/20 13:57:19;;;;;;;5.20;2.83;;;20.50;47.20;;;;;;5028353;28;20029;-71
2022/01/20 13:59:56;;;;;;;9.02;3.47;;;20.50;47.10;;;;;;5029176;28;20064;-72
2022/01/20 14:02:23;;;;;;;6.18;3.17;;;20.50;46.90;;;;;;5028174;28;20520;-71
2022/01/20 14:04:50;;;;;;;6.00;2.95;;;20.50;46.90;;;;;;5028053;28;20105;-71
2022/01/20 14:07:17;;;;;;;6.75;2.97;;;20.50;47.10;;;;;;5029515;28;20034;-72